createdAt,value
2022-10-04T00:01:49.630Z,10.50
2022-10-04T00:04:32.406Z,9.50
2022-10-04T00:07:03.870Z,9.90
2022-10-04T00:09:36.111Z,10.52
2022-10-04T00:12:04.785Z,10.45
2022-10-04T00:14:39.372Z,10.82
2022-10-04T00:17:12.283Z,11.32
2022-10-04T00:19:57.580Z,11.45
2022-10-04T00:22:25.453Z,11.63
2022-10-04T00:25:01.097Z,11.07
2022-10-04T00:27:28.827Z,10.98
2022-10-04T00:30:04.218Z,10.85
2022-10-04T00:32:39.658Z,12.18
2022-10-04T00:35:24.605Z,11.43
2022-10-04T00:38:15.708Z,11.00
2022-10-04T00:40:50.961Z,11.73
2022-10-04T00:43:25.973Z,12.25
2022-10-04T00:45:59.029Z,11.23
2022-10-04T00:48:31.826Z,11.55
2022-10-04T00:51:20.248Z,11.52
2022-10-04T00:53:49.844Z,12.00
2022-10-04T00:56:26.243Z,11.73
2022-10-04T00:58:57.506Z,11.68
2022-10-04T01:01:28.598Z,11.93
2022-10-04T01:03:58.380Z,12.23
2022-10-04T01:06:26.553Z,11.53
2022-10-04T01:09:04.757Z,11.15
2022-10-04T01:11:37.722Z,10.77
2022-10-04T01:14:11.459Z,12.00
2022-10-04T01:16:38.434Z,12.48
2022-10-04T01:19:24.516Z,11.57
2022-10-04T01:22:09.184Z,12.43
2022-10-04T01:24:40.901Z,10.82
2022-10-04T01:27:33.159Z,11.85
2022-10-04T01:30:03.161Z,11.10
2022-10-04T01:32:31.633Z,11.35
2022-10-04T01:34:59.022Z,10.98
2022-10-04T01:37:26.279Z,11.43
2022-10-04T01:39:53.159Z,12.35
2022-10-04T01:42:29.989Z,13.32
2022-10-04T01:45:12.404Z,12.75
2022-10-04T01:47:45.378Z,12.75
2022-10-04T01:50:28.262Z,14.27
2022-10-04T01:53:01.517Z,13.50
2022-10-04T01:55:35.993Z,13.63
2022-10-04T01:58:11.303Z,13.45
2022-10-04T02:00:45.273Z,13.68
2022-10-04T02:03:20.877Z,13.85
2022-10-04T02:06:00.733Z,13.88
2022-10-04T02:08:30.951Z,13.87
2022-10-04T02:10:58.325Z,16.10
2022-10-04T02:13:29.478Z,14.52
2022-10-04T02:15:58.584Z,14.40
2022-10-04T02:18:27.072Z,13.82
2022-10-04T02:20:55.079Z,14.15
2022-10-04T02:23:24.687Z,14.20
2022-10-04T02:25:52.050Z,13.05
2022-10-04T02:28:18.961Z,12.88
2022-10-04T02:31:09.692Z,14.23
2022-10-04T02:36:11.086Z,13.77
2022-10-04T02:39:08.151Z,13.48
2022-10-04T02:41:48.724Z,12.63
2022-10-04T02:44:42.559Z,14.10
2022-10-04T02:47:29.780Z,12.73
2022-10-04T02:50:06.834Z,15.30
2022-10-04T02:52:44.631Z,12.57
2022-10-04T02:55:24.713Z,12.60
2022-10-04T02:57:52.546Z,12.93
2022-10-04T03:00:28.960Z,12.35
2022-10-04T03:03:29.988Z,11.70
2022-10-04T03:06:04.581Z,12.73
2022-10-04T03:08:43.431Z,11.52
2022-10-04T03:11:12.408Z,11.50
2022-10-04T03:13:46.877Z,10.32
2022-10-04T03:16:13.972Z,10.48
2022-10-04T03:18:42.266Z,10.30
2022-10-04T03:21:12.617Z,11.13
2022-10-04T03:23:40.625Z,11.02
2022-10-04T03:26:24.232Z,10.43
2022-10-04T03:28:51.193Z,10.38
2022-10-04T03:31:20.019Z,9.98
2022-10-04T03:33:47.765Z,10.43
2022-10-04T03:36:18.832Z,11.43
2022-10-04T03:38:48.426Z,10.32
2022-10-04T03:41:16.732Z,10.35
2022-10-04T03:43:46.754Z,10.25
2022-10-04T03:46:14.579Z,11.07
2022-10-04T03:48:50.156Z,11.05
2022-10-04T03:51:21.393Z,11.68
2022-10-04T03:53:59.744Z,11.20
2022-10-04T03:56:33.586Z,10.95
2022-10-04T03:59:04.122Z,11.68
2022-10-04T04:01:44.393Z,11.07
2022-10-04T04:04:13.877Z,12.85
2022-10-04T04:07:01.449Z,12.10
2022-10-04T04:09:43.749Z,12.68
2022-10-04T04:12:17.070Z,13.60
2022-10-04T04:14:46.849Z,14.13
2022-10-04T04:17:33.921Z,14.00
2022-10-04T04:20:07.691Z,13.27
2022-10-04T04:22:36.307Z,14.45
2022-10-04T04:25:08.320Z,13.48
2022-10-04T04:27:39.891Z,13.82
2022-10-04T04:30:09.075Z,14.57
2022-10-04T04:32:40.521Z,13.80
2022-10-04T04:35:24.697Z,15.35
2022-10-04T04:38:19.563Z,13.82
2022-10-04T04:40:46.415Z,14.30
2022-10-04T04:43:20.097Z,14.45
2022-10-04T04:46:02.974Z,13.38
2022-10-04T04:48:36.731Z,14.45
2022-10-04T04:51:04.427Z,14.40
2022-10-04T04:53:31.256Z,14.05
2022-10-04T04:56:04.920Z,13.90
2022-10-04T04:58:42.481Z,14.25
2022-10-04T05:01:21.516Z,13.98
2022-10-04T05:04:14.172Z,12.63
2022-10-04T05:06:49.164Z,13.90
2022-10-04T05:09:28.802Z,13.30
2022-10-04T05:12:03.815Z,13.07
2022-10-04T05:14:31.746Z,12.80
2022-10-04T05:16:58.366Z,12.73
2022-10-04T05:19:30.422Z,12.05
2022-10-04T05:21:59.910Z,12.43
2022-10-04T05:24:36.583Z,12.40
2022-10-04T05:27:07.687Z,11.90
2022-10-04T05:29:38.253Z,11.20
2022-10-04T05:32:07.538Z,11.40
2022-10-04T05:34:44.429Z,10.85
2022-10-04T05:37:30.881Z,10.60
2022-10-04T05:40:13.819Z,9.70
2022-10-04T05:42:45.506Z,9.18
2022-10-04T05:45:23.444Z,8.35
2022-10-04T05:47:52.482Z,7.80
2022-10-04T05:50:41.897Z,8.60
2022-10-04T05:53:34.512Z,9.40
2022-10-04T05:56:42.722Z,9.00
2022-10-04T05:59:23.824Z,8.23
2022-10-04T06:02:25.094Z,8.70
2022-10-04T06:05:15.964Z,9.18
2022-10-04T06:10:15.851Z,9.80
2022-10-04T06:13:20.161Z,9.02
2022-10-04T06:16:09.735Z,9.07
2022-10-04T06:18:47.280Z,9.43
2022-10-04T06:21:24.241Z,8.35
2022-10-04T06:24:10.485Z,9.40
2022-10-04T06:27:21.615Z,9.43
2022-10-04T06:30:04.122Z,10.45
2022-10-04T06:33:18.707Z,10.43
2022-10-04T06:36:01.902Z,11.10
2022-10-04T06:39:04.536Z,12.07
2022-10-04T06:42:02.479Z,12.95
2022-10-04T06:44:38.200Z,11.77
2022-10-04T06:47:35.370Z,11.23
2022-10-04T06:50:30.772Z,11.45
2022-10-04T06:53:21.221Z,11.27
2022-10-04T06:56:02.996Z,10.95
2022-10-04T06:58:29.962Z,10.38
2022-10-04T07:01:23.450Z,10.82
2022-10-04T07:04:13.129Z,11.05
2022-10-04T07:07:24.461Z,9.73
2022-10-04T07:10:24.571Z,10.57
2022-10-04T07:13:12.878Z,10.77
2022-10-04T07:15:54.203Z,10.15
2022-10-04T07:18:26.912Z,10.68
2022-10-04T07:21:05.547Z,9.90
2022-10-04T07:23:39.047Z,10.15
2022-10-04T07:26:16.774Z,10.65
2022-10-04T07:29:04.041Z,11.77
2022-10-04T07:31:36.877Z,10.98
2022-10-04T07:34:11.976Z,10.65
2022-10-04T07:36:50.658Z,10.93
2022-10-04T07:39:21.880Z,10.43
2022-10-04T07:41:53.552Z,10.27
2022-10-04T07:44:36.685Z,11.13
2022-10-04T07:47:20.191Z,10.07
2022-10-04T07:49:49.508Z,10.43
2022-10-04T07:52:49.376Z,10.43
2022-10-04T07:55:22.000Z,11.27
2022-10-04T07:58:07.329Z,10.70
2022-10-04T08:00:49.612Z,10.65
2022-10-04T08:03:25.148Z,10.43
2022-10-04T08:06:11.493Z,11.45
2022-10-04T08:08:41.002Z,10.43
2022-10-04T08:11:52.214Z,9.95
2022-10-04T08:14:27.777Z,10.43
2022-10-04T08:17:20.786Z,10.60
2022-10-04T08:20:04.379Z,11.35
2022-10-04T08:22:39.885Z,11.98
2022-10-04T08:25:21.792Z,10.65
2022-10-04T08:28:15.386Z,9.90
2022-10-04T08:31:21.563Z,10.70
2022-10-04T08:34:02.009Z,10.60
2022-10-04T08:36:51.924Z,10.45
2022-10-04T08:39:48.690Z,10.45
2022-10-04T08:42:48.517Z,11.23
2022-10-04T08:45:49.272Z,11.40
2022-10-04T08:48:52.729Z,10.38
2022-10-04T08:51:54.711Z,10.63
2022-10-04T08:54:40.805Z,9.90
2022-10-04T08:57:43.806Z,10.77
2022-10-04T09:00:38.158Z,9.77
2022-10-04T09:03:24.671Z,10.35
2022-10-04T09:06:09.687Z,10.55
2022-10-04T09:09:13.765Z,10.48
2022-10-04T09:11:43.306Z,11.40
2022-10-04T09:14:29.230Z,10.18
2022-10-04T09:17:22.659Z,9.57
2022-10-04T09:20:36.826Z,7.35
2022-10-04T09:23:20.938Z,8.15
2022-10-04T09:26:33.236Z,7.43
2022-10-04T09:29:30.789Z,7.93
2022-10-04T09:32:23.441Z,7.57
2022-10-04T09:35:17.905Z,7.75
2022-10-04T09:38:22.129Z,7.88
2022-10-04T09:41:23.847Z,8.15
2022-10-04T09:44:24.144Z,8.07
2022-10-04T09:46:57.543Z,8.18
2022-10-04T09:49:36.880Z,8.35
2022-10-04T09:52:17.232Z,8.02
2022-10-04T09:55:05.261Z,7.75
2022-10-04T09:58:01.887Z,7.78
2022-10-04T10:00:38.463Z,8.43
2022-10-04T10:03:23.676Z,7.80
2022-10-04T10:06:12.222Z,7.95
2022-10-04T10:08:50.681Z,8.30
2022-10-04T10:12:01.143Z,7.75
2022-10-04T10:14:30.437Z,7.63
2022-10-04T10:17:23.870Z,6.28
2022-10-04T10:20:18.280Z,7.25
2022-10-04T10:23:16.925Z,6.63
2022-10-04T10:26:01.545Z,7.15
2022-10-04T10:28:34.227Z,6.65
2022-10-04T10:31:32.330Z,6.68
2022-10-04T10:34:16.917Z,7.13
2022-10-04T10:37:00.469Z,7.30
2022-10-04T10:39:44.861Z,7.20
2022-10-04T10:42:43.350Z,6.65
2022-10-04T10:45:44.779Z,6.40
2022-10-04T10:48:27.907Z,6.68
2022-10-04T10:51:10.761Z,6.15
2022-10-04T10:54:13.656Z,5.97
2022-10-04T10:56:56.987Z,5.75
2022-10-04T10:59:32.453Z,5.72
2022-10-04T11:02:42.324Z,5.20
2022-10-04T11:05:33.941Z,4.85
2022-10-04T11:08:31.763Z,4.75
2022-10-04T11:11:04.292Z,5.18
2022-10-04T11:13:33.902Z,4.20
2022-10-04T11:16:21.864Z,4.80
2022-10-04T11:19:29.243Z,5.00
2022-10-04T11:22:15.285Z,4.95
2022-10-04T11:24:59.869Z,4.88
2022-10-04T11:28:04.490Z,4.57
2022-10-04T11:31:09.524Z,4.63
2022-10-04T11:34:16.548Z,4.30
2022-10-04T11:37:20.990Z,4.97
2022-10-04T11:39:53.329Z,4.93
2022-10-04T11:43:01.203Z,4.80
2022-10-04T11:45:46.727Z,5.07
2022-10-04T11:48:42.025Z,5.28
2022-10-04T11:51:26.324Z,4.07
2022-10-04T11:54:17.404Z,4.20
2022-10-04T11:57:09.985Z,4.18
2022-10-04T11:59:39.522Z,3.60
2022-10-04T12:02:28.474Z,3.83
2022-10-04T12:05:13.687Z,3.53
2022-10-04T12:08:01.482Z,3.47
2022-10-04T12:10:39.210Z,3.45
2022-10-04T12:13:28.180Z,3.40
2022-10-04T12:16:29.706Z,3.90
2022-10-04T12:19:44.034Z,4.00
2022-10-04T12:22:32.968Z,3.08
2022-10-04T12:25:22.905Z,3.40
2022-10-04T12:28:05.323Z,3.20
2022-10-04T12:30:58.195Z,3.10
2022-10-04T12:33:35.012Z,3.22
2022-10-04T12:36:14.821Z,3.05
2022-10-04T12:38:55.800Z,3.20
2022-10-04T12:42:02.421Z,3.00
2022-10-04T12:44:44.767Z,3.05
2022-10-04T12:47:45.597Z,2.90
2022-10-04T12:50:35.204Z,2.80
2022-10-04T12:53:39.251Z,2.55
2022-10-04T12:56:22.277Z,2.78
2022-10-04T12:59:17.213Z,2.70
2022-10-04T13:02:11.667Z,3.15
2022-10-04T13:05:12.129Z,2.83
2022-10-04T13:07:44.589Z,3.28
2022-10-04T13:10:44.509Z,3.03
2022-10-04T13:13:36.152Z,2.83
2022-10-04T13:19:50.540Z,2.83
2022-10-04T13:22:55.245Z,3.25
2022-10-04T13:25:52.115Z,2.70
2022-10-04T13:28:32.034Z,2.47
2022-10-04T13:31:24.493Z,2.80
2022-10-04T13:34:14.194Z,2.95
2022-10-04T13:37:31.910Z,2.87
2022-10-04T13:40:33.314Z,2.45
2022-10-04T13:43:17.821Z,2.22
2022-10-04T13:46:22.152Z,2.53
2022-10-04T13:49:26.046Z,2.25
2022-10-04T13:52:23.482Z,2.50
2022-10-04T13:55:21.181Z,1.85
2022-10-04T13:58:33.060Z,2.78
2022-10-04T14:01:31.211Z,2.47
2022-10-04T14:04:43.038Z,2.60
2022-10-04T14:07:30.067Z,2.72
2022-10-04T14:10:43.084Z,2.55
2022-10-04T14:13:24.767Z,2.50
2022-10-04T14:16:34.104Z,2.40
2022-10-04T14:19:24.788Z,4.00
2022-10-04T14:25:03.260Z,2.60
2022-10-04T14:27:57.869Z,2.50
2022-10-04T14:30:39.074Z,2.45
2022-10-04T14:33:28.800Z,2.33
2022-10-04T14:36:23.630Z,1.90
2022-10-04T14:38:52.830Z,2.45
2022-10-04T14:41:31.368Z,2.30
2022-10-04T14:43:58.520Z,2.70
2022-10-04T14:46:53.859Z,2.30
2022-10-04T14:49:43.093Z,2.72
2022-10-04T14:52:33.238Z,2.53
2022-10-04T14:55:26.321Z,2.38
2022-10-04T14:58:05.350Z,2.53
2022-10-04T15:01:01.504Z,2.08
2022-10-04T15:04:09.086Z,2.42
2022-10-04T15:06:52.522Z,2.15
2022-10-04T15:09:40.406Z,2.80
2022-10-04T15:12:40.736Z,2.33
2022-10-04T15:15:12.978Z,2.25
2022-10-04T15:17:47.521Z,2.47
2022-10-04T15:20:20.719Z,2.45
2022-10-04T15:22:55.734Z,2.45
2022-10-04T15:25:43.897Z,2.13
2022-10-04T15:28:39.202Z,2.60
2022-10-04T15:31:28.116Z,2.78
2022-10-04T15:34:09.795Z,2.83
2022-10-04T15:36:57.798Z,3.10
2022-10-04T15:39:43.029Z,2.70
2022-10-04T15:42:27.065Z,2.53
2022-10-04T15:45:05.565Z,2.95
2022-10-04T15:47:57.706Z,2.80
2022-10-04T15:50:36.485Z,2.45
2022-10-04T15:53:23.432Z,2.28
2022-10-04T15:56:06.927Z,2.72
2022-10-04T15:59:04.025Z,2.60
2022-10-04T16:01:49.305Z,2.70
2022-10-04T16:04:18.740Z,2.80
2022-10-04T16:07:07.081Z,2.38
2022-10-04T16:09:47.341Z,2.75
2022-10-04T16:12:29.437Z,2.38
2022-10-04T16:15:12.833Z,2.60
2022-10-04T16:17:54.315Z,3.10
2022-10-04T16:20:27.856Z,2.88
2022-10-04T16:23:24.025Z,2.80
2022-10-04T16:25:58.491Z,3.00
2022-10-04T16:29:04.533Z,2.72
2022-10-04T16:32:03.172Z,3.30
2022-10-04T16:34:51.159Z,3.08
2022-10-04T16:37:24.102Z,2.95
2022-10-04T16:39:59.559Z,3.13
2022-10-04T16:42:49.356Z,3.45
2022-10-04T16:45:31.059Z,4.10
2022-10-04T16:48:02.325Z,4.20
2022-10-04T16:51:20.806Z,3.72
2022-10-04T16:54:10.484Z,3.65
2022-10-04T16:57:22.426Z,3.47
2022-10-04T16:59:57.109Z,3.35
2022-10-04T17:02:45.747Z,4.53
2022-10-04T17:05:22.571Z,3.90
2022-10-04T17:07:56.249Z,4.20
2022-10-04T17:10:38.340Z,4.63
2022-10-04T17:13:23.314Z,4.80
2022-10-04T17:16:06.719Z,5.20
2022-10-04T17:19:09.285Z,5.07
2022-10-04T17:21:53.999Z,4.50
2022-10-04T17:24:42.172Z,5.03
2022-10-04T17:27:35.143Z,5.35
2022-10-04T17:30:04.996Z,4.85
2022-10-04T17:32:40.815Z,5.28
2022-10-04T17:35:19.130Z,5.32
2022-10-04T17:38:17.507Z,5.28
2022-10-04T17:40:59.773Z,6.35
2022-10-04T17:43:56.229Z,5.90
2022-10-04T17:46:57.990Z,5.53
2022-10-04T17:50:07.921Z,5.68
2022-10-04T17:53:06.473Z,6.15
2022-10-04T17:55:55.986Z,5.97
2022-10-04T17:58:30.541Z,5.82
2022-10-04T18:01:41.073Z,6.40
2022-10-04T18:04:17.283Z,5.85
2022-10-04T18:06:59.111Z,6.32
2022-10-04T18:09:33.361Z,6.90
2022-10-04T18:12:04.983Z,7.03
2022-10-04T18:15:09.217Z,6.78
2022-10-04T18:17:42.799Z,6.15
2022-10-04T18:20:27.796Z,7.25
2022-10-04T18:23:18.374Z,6.90
2022-10-04T18:25:45.871Z,7.20
2022-10-04T18:28:22.786Z,7.43
2022-10-04T18:30:49.431Z,7.57
2022-10-04T18:33:25.824Z,8.02
2022-10-04T18:36:02.777Z,7.35
2022-10-04T18:38:31.641Z,8.18
2022-10-04T18:41:01.745Z,8.75
2022-10-04T18:43:41.723Z,8.50
2022-10-04T18:46:22.205Z,8.18
2022-10-04T18:48:59.893Z,8.35
2022-10-04T18:52:12.308Z,8.85
2022-10-04T18:54:57.761Z,7.95
2022-10-04T18:57:32.880Z,7.47
2022-10-04T19:00:29.250Z,7.57
2022-10-04T19:03:07.907Z,8.27
2022-10-04T19:05:53.740Z,7.90
2022-10-04T19:08:35.734Z,9.32
2022-10-04T19:11:02.185Z,9.60
2022-10-04T19:14:14.490Z,11.65
2022-10-04T19:16:51.158Z,10.35
2022-10-04T19:19:51.033Z,10.70
2022-10-04T19:22:37.671Z,9.67
2022-10-04T19:25:31.380Z,9.25
2022-10-04T19:28:07.442Z,9.10
2022-10-04T19:30:51.613Z,8.70
2022-10-04T19:33:26.873Z,9.02
2022-10-04T19:36:26.439Z,8.65
2022-10-04T19:38:53.595Z,8.93
2022-10-04T19:41:50.248Z,9.55
2022-10-04T19:44:38.233Z,8.98
2022-10-04T19:47:24.106Z,8.98
2022-10-04T19:50:04.237Z,10.02
2022-10-04T19:52:45.530Z,10.55
2022-10-04T19:55:45.280Z,10.43
2022-10-04T19:59:01.553Z,10.13
2022-10-04T20:01:29.772Z,9.43
2022-10-04T20:04:15.822Z,10.02
2022-10-04T20:06:50.143Z,9.40
2022-10-04T20:09:55.296Z,10.55
2022-10-04T20:12:33.081Z,10.20
2022-10-04T20:15:42.701Z,10.48
2022-10-04T20:18:33.902Z,9.85
2022-10-04T20:21:01.032Z,9.63
2022-10-04T20:23:39.681Z,9.20
2022-10-04T20:26:11.174Z,9.13
2022-10-04T20:28:41.898Z,9.15
2022-10-04T20:31:27.922Z,8.63
2022-10-04T20:33:54.536Z,9.43
2022-10-04T20:36:21.172Z,8.77
2022-10-04T20:38:52.004Z,9.23
2022-10-04T20:42:06.096Z,9.50
2022-10-04T20:44:53.874Z,10.05
2022-10-04T20:47:24.428Z,12.07
2022-10-04T20:52:19.394Z,11.20
2022-10-04T20:54:52.330Z,11.00
2022-10-04T20:57:24.686Z,10.95
2022-10-04T20:59:54.594Z,10.82
2022-10-04T21:02:24.335Z,11.02
2022-10-04T21:04:54.259Z,10.83
2022-10-04T21:07:25.477Z,10.32
2022-10-04T21:09:55.670Z,10.15
2022-10-04T21:12:34.456Z,10.88
2022-10-04T21:15:17.807Z,10.48
2022-10-04T21:18:00.480Z,10.00
2022-10-04T21:20:43.665Z,10.52
2022-10-04T21:23:23.220Z,11.15
2022-10-04T21:25:50.570Z,10.52
2022-10-04T21:28:34.663Z,10.90
2022-10-04T21:31:02.702Z,11.05
2022-10-04T21:33:31.416Z,12.43
2022-10-04T21:35:58.002Z,11.23
2022-10-04T21:38:24.599Z,11.63
2022-10-04T21:40:51.140Z,11.20
2022-10-04T21:43:17.833Z,11.10
2022-10-04T21:45:44.423Z,10.88
2022-10-04T21:48:11.091Z,11.80
2022-10-04T21:50:37.600Z,11.88
2022-10-04T21:53:04.201Z,12.43
2022-10-04T21:55:30.690Z,12.10
2022-10-04T21:57:57.215Z,11.95
2022-10-04T22:00:24.357Z,11.52
2022-10-04T22:02:50.890Z,11.85
2022-10-04T22:05:17.442Z,12.30
2022-10-04T22:07:44.215Z,13.80
2022-10-04T22:10:10.727Z,12.07
2022-10-04T22:12:37.365Z,13.35
2022-10-04T22:15:05.021Z,12.68
2022-10-04T22:17:31.625Z,12.50
2022-10-04T22:19:58.176Z,12.10
2022-10-04T22:22:24.797Z,11.88
2022-10-04T22:24:51.363Z,11.77
2022-10-04T22:27:20.020Z,11.18
2022-10-04T22:29:46.906Z,11.55
2022-10-04T22:32:22.642Z,11.25
2022-10-04T22:34:49.659Z,11.30
2022-10-04T22:37:24.348Z,10.50
2022-10-04T22:39:52.107Z,10.23
2022-10-04T22:42:20.389Z,11.23
2022-10-04T22:44:46.883Z,11.35
2022-10-04T22:47:15.766Z,11.80
2022-10-04T22:49:45.336Z,12.63
2022-10-04T22:52:18.618Z,11.70
2022-10-04T22:54:47.569Z,12.07
2022-10-04T22:57:16.786Z,12.25
2022-10-04T22:59:44.609Z,11.95
2022-10-04T23:02:15.038Z,11.80
2022-10-04T23:04:51.288Z,12.45
2022-10-04T23:07:18.535Z,11.77
2022-10-04T23:09:45.500Z,11.95
2022-10-04T23:12:12.048Z,11.98
2022-10-04T23:14:39.456Z,12.23
2022-10-04T23:17:29.172Z,12.05
2022-10-04T23:20:04.252Z,11.27
2022-10-04T23:22:30.848Z,11.38
2022-10-04T23:24:57.902Z,11.57
2022-10-04T23:27:24.583Z,12.07
2022-10-04T23:30:00.845Z,11.55
2022-10-04T23:32:27.727Z,11.10
2022-10-04T23:34:56.926Z,11.50
2022-10-04T23:37:26.584Z,11.70
2022-10-04T23:39:53.230Z,11.10
2022-10-04T23:42:25.340Z,12.35
2022-10-04T23:44:52.137Z,11.18
2022-10-04T23:47:20.051Z,12.35
2022-10-04T23:49:49.764Z,11.93
2022-10-04T23:52:24.959Z,12.90
2022-10-04T23:54:53.464Z,11.55
2022-10-04T23:57:28.342Z,12.02
2022-10-04T23:59:55.318Z,11.20
